createdAt,value
2023-01-27T00:07:06.925Z,91226.50
2023-01-27T00:15:31.281Z,91215.43
2023-01-27T00:24:13.031Z,91199.90
2023-01-27T00:32:54.900Z,91187.88
2023-01-27T00:41:20.704Z,91181.73
2023-01-27T00:49:43.511Z,91140.27
2023-01-27T00:58:06.264Z,91099.73
2023-01-27T01:06:29.277Z,91093.08
2023-01-27T01:14:52.953Z,91056.61
2023-01-27T01:23:16.539Z,91032.69
2023-01-27T01:31:39.445Z,91024.06
2023-01-27T01:40:02.342Z,90981.13
2023-01-27T01:48:43.253Z,90951.45
2023-01-27T01:57:18.692Z,90908.39
2023-01-27T02:05:45.472Z,90853.05
2023-01-27T02:14:08.943Z,90852.04
2023-01-27T02:22:53.816Z,90876.17
2023-01-27T02:31:16.892Z,90849.83
2023-01-27T02:39:44.669Z,90849.30
2023-01-27T02:48:07.583Z,90843.22
2023-01-27T02:56:30.499Z,90768.73
2023-01-27T03:04:53.856Z,90723.48
2023-01-27T03:13:22.060Z,90725.28
2023-01-27T03:21:45.900Z,90722.00
2023-01-27T03:30:09.865Z,90721.17
2023-01-27T03:38:53.107Z,90724.98
2023-01-27T03:47:16.022Z,90718.71
2023-01-27T03:55:39.222Z,90712.65
2023-01-27T04:04:21.955Z,90691.76
2023-01-27T04:12:45.442Z,90658.15
2023-01-27T04:21:08.196Z,90652.70
2023-01-27T04:29:34.906Z,90672.72
2023-01-27T04:37:57.848Z,90646.73
2023-01-27T04:46:21.913Z,90621.48
2023-01-27T04:54:44.958Z,90597.33
2023-01-27T05:03:10.361Z,90546.98
2023-01-27T05:11:33.327Z,90512.65
2023-01-27T05:19:56.256Z,90488.36
2023-01-27T05:28:19.041Z,90470.88
2023-01-27T05:36:41.919Z,90475.34
2023-01-27T05:45:05.576Z,90499.23
2023-01-27T05:53:28.873Z,90512.45
2023-01-27T06:01:52.153Z,90537.73
2023-01-27T06:10:15.221Z,90569.84
2023-01-27T06:18:39.795Z,90579.63
2023-01-27T06:27:02.571Z,90618.91
2023-01-27T06:35:25.473Z,90677.99
2023-01-27T06:43:48.502Z,90731.16
2023-01-27T06:52:11.743Z,90776.16
2023-01-27T07:00:36.352Z,90849.77
2023-01-27T07:08:59.205Z,90906.88
2023-01-27T07:17:21.960Z,90932.11
2023-01-27T07:25:45.097Z,90980.61
2023-01-27T07:34:08.123Z,91036.21
2023-01-27T07:42:30.995Z,91055.92
2023-01-27T07:50:54.001Z,91085.46
2023-01-27T07:59:16.909Z,91134.49
2023-01-27T08:07:39.749Z,91149.60
2023-01-27T08:16:06.072Z,91144.23
2023-01-27T08:24:29.009Z,91160.98
2023-01-27T08:32:52.159Z,91217.73
2023-01-27T08:41:18.726Z,91296.77
2023-01-27T08:49:41.582Z,91370.77
2023-01-27T08:58:04.638Z,91410.56
2023-01-27T09:06:27.581Z,91425.68
2023-01-27T09:14:50.369Z,91441.74
2023-01-27T09:23:13.226Z,91490.81
2023-01-27T09:31:36.195Z,91537.42
2023-01-27T09:40:08.469Z,91551.77
2023-01-27T09:48:46.583Z,91554.66
2023-01-27T09:57:09.333Z,91597.77
2023-01-27T10:05:56.900Z,91661.56
2023-01-27T10:14:27.287Z,91727.41
2023-01-27T10:23:02.205Z,91807.40
2023-01-27T10:31:28.651Z,91866.20
2023-01-27T10:40:04.080Z,91893.48
2023-01-27T10:48:45.999Z,91974.83
2023-01-27T10:57:14.135Z,92017.92
2023-01-27T11:05:42.326Z,92017.44
2023-01-27T11:14:15.977Z,92000.70
2023-01-27T11:22:55.756Z,92035.62
2023-01-27T11:31:42.889Z,92071.94
2023-01-27T11:40:19.318Z,92031.67
2023-01-27T11:48:55.808Z,91976.35
2023-01-27T11:57:22.301Z,91980.34
2023-01-27T12:05:52.506Z,91993.33
2023-01-27T12:14:15.284Z,92023.10
2023-01-27T12:22:40.598Z,92024.66
2023-01-27T12:31:20.638Z,92024.66
2023-01-27T12:39:53.163Z,92004.61
2023-01-27T12:48:18.864Z,91963.16
2023-01-27T12:56:42.726Z,91924.66
2023-01-27T13:05:10.889Z,91908.92
2023-01-27T13:13:35.365Z,91896.20
2023-01-27T13:21:59.295Z,91875.39
2023-01-27T13:30:32.645Z,91881.05
2023-01-27T13:39:04.816Z,91859.31
2023-01-27T13:47:52.483Z,91852.67
2023-01-27T13:56:37.227Z,91839.71
2023-01-27T14:05:00.142Z,91818.27
2023-01-27T14:13:38.117Z,91792.13
2023-01-27T14:22:12.493Z,91761.99
2023-01-27T14:30:42.891Z,91755.23
2023-01-27T14:39:41.696Z,91770.44
2023-01-27T14:48:49.344Z,91763.17
2023-01-27T14:57:43.568Z,91742.89
2023-01-27T15:06:29.807Z,91740.19
2023-01-27T15:15:04.677Z,91729.41
2023-01-27T15:23:41.581Z,91723.38
2023-01-27T15:32:13.763Z,91724.13
2023-01-27T15:40:55.685Z,91711.48
2023-01-27T15:49:23.481Z,91686.34
2023-01-27T15:57:46.318Z,91683.08
2023-01-27T16:06:17.815Z,91685.81
2023-01-27T16:14:43.367Z,91659.08
2023-01-27T16:23:13.971Z,91652.53
2023-01-27T16:31:39.499Z,91645.27
2023-01-27T16:40:13.583Z,91625.90
2023-01-27T16:48:45.709Z,91630.60
2023-01-27T16:57:30.937Z,91615.45
2023-01-27T17:05:57.693Z,91606.50
2023-01-27T17:14:31.790Z,91605.79
2023-01-27T17:22:56.442Z,91594.89
2023-01-27T17:31:23.775Z,91602.71
2023-01-27T17:39:52.015Z,91590.69
2023-01-27T17:48:15.950Z,91565.63
2023-01-27T17:56:39.018Z,91571.79
2023-01-27T18:05:06.043Z,91583.66
2023-01-27T18:13:28.776Z,91564.91
2023-01-27T18:22:15.387Z,91554.24
2023-01-27T18:30:46.296Z,91560.30
2023-01-27T18:39:36.027Z,91546.77
2023-01-27T18:47:59.652Z,91547.25
2023-01-27T18:56:23.031Z,91553.86
2023-01-27T19:04:46.075Z,91553.20
2023-01-27T19:13:11.257Z,91558.13
2023-01-27T19:21:34.261Z,91553.70
2023-01-27T19:29:57.027Z,91540.39
2023-01-27T19:38:20.507Z,91563.81
2023-01-27T19:46:43.563Z,91598.17
2023-01-27T19:55:10.401Z,91586.63
2023-01-27T20:03:34.512Z,91555.84
2023-01-27T20:11:57.414Z,91552.22
2023-01-27T20:20:21.941Z,91558.89
2023-01-27T20:28:46.711Z,91529.17
2023-01-27T20:37:09.520Z,91523.38
2023-01-27T20:45:33.347Z,91522.23
2023-01-27T20:53:57.760Z,91500.58
2023-01-27T21:02:20.594Z,91499.54
2023-01-27T21:10:43.733Z,91479.95
2023-01-27T21:19:07.043Z,91459.58
2023-01-27T21:27:29.951Z,91451.74
2023-01-27T21:35:56.018Z,91468.48
2023-01-27T21:44:46.516Z,91463.71
2023-01-27T21:53:10.628Z,91449.28
2023-01-27T22:01:34.624Z,91439.80
2023-01-27T22:09:57.443Z,91453.82
2023-01-27T22:18:20.301Z,91471.86
2023-01-27T22:26:43.193Z,91458.38
2023-01-27T22:35:06.719Z,91419.37
2023-01-27T22:43:29.505Z,91394.38
2023-01-27T22:51:52.296Z,91417.60
2023-01-27T23:00:15.685Z,91438.43
2023-01-27T23:08:38.548Z,91436.19
2023-01-27T23:17:01.363Z,91423.98
2023-01-27T23:25:24.140Z,91416.01
2023-01-27T23:33:49.221Z,91427.88
2023-01-27T23:42:12.076Z,91457.19
2023-01-27T23:50:34.949Z,91466.89
2023-01-27T23:58:57.771Z,91456.48
